Time;durP1;ratioP1;P1;durP2;ratioP2;P2;SDS_P1;SDS_P2;PMS_P1;PMS_P2;Temp;Humidity;BMP_temperature;BMP_pressure;BME280_temperature;BME280_humidity;BME280_pressure;Samples;Min_cycle;Max_cycle;Signal;HPM_P1;HPM_P2
2022/01/12 00:01:05;;;;;;;50.73;27.67;;;-1.00;43.20;;;;;;6298390;28;20297;-54
2022/01/12 00:04:09;;;;;;;47.77;27.00;;;-1.10;42.40;;;;;;6300779;28;20239;-55
2022/01/12 00:07:12;;;;;;;51.33;28.83;;;-1.20;42.40;;;;;;6258690;28;20235;-54
2022/01/12 00:10:16;;;;;;;51.07;27.07;;;-1.30;42.50;;;;;;6298383;28;20233;-54
2022/01/12 00:13:20;;;;;;;51.53;28.30;;;-1.20;42.90;;;;;;6297259;28;20304;-54
2022/01/12 00:16:23;;;;;;;48.60;26.60;;;-1.10;41.50;;;;;;6300117;28;20379;-55
2022/01/12 00:19:26;;;;;;;44.70;26.70;;;-1.00;40.20;;;;;;6291263;28;20526;-55
2022/01/12 00:22:32;;;;;;;46.20;25.70;;;-1.10;40.90;;;;;;6295951;28;20276;-54
2022/01/12 00:25:55;;;;;;;53.87;28.00;;;-1.20;41.40;;;;;;6296293;28;20229;-54
2022/01/12 00:35:44;;;;;;;50.83;25.80;;;-1.30;42.80;;;;;;6294995;28;20360;-55
2022/01/12 00:38:47;;;;;;;47.70;26.77;;;-1.20;43.10;;;;;;6296967;28;20284;-55
2022/01/12 00:41:51;;;;;;;45.93;26.50;;;-1.00;42.70;;;;;;6305438;28;20323;-55
2022/01/12 00:44:55;;;;;;;50.07;28.03;;;-1.30;43.70;;;;;;6294382;28;20252;-55
2022/01/12 00:47:58;;;;;;;47.13;26.93;;;-1.20;43.60;;;;;;6299366;28;20286;-55
2022/01/12 00:51:01;;;;;;;49.03;27.73;;;-1.10;44.30;;;;;;6298328;28;20620;-55
2022/01/12 00:54:08;;;;;;;56.20;28.03;;;-1.00;44.20;;;;;;6297795;28;20578;-55
2022/01/12 00:57:10;;;;;;;54.03;28.53;;;-1.20;44.70;;;;;;6289797;28;20335;-54
2022/01/12 01:00:15;;;;;;;45.43;26.47;;;-1.10;44.20;;;;;;6302761;28;20240;-55
2022/01/12 01:03:18;;;;;;;52.00;28.23;;;-1.10;42.00;;;;;;6296966;28;20309;-56
2022/01/12 01:06:22;;;;;;;52.17;27.53;;;-1.00;43.30;;;;;;6299427;28;21029;-55
2022/01/12 01:09:25;;;;;;;46.93;27.90;;;-1.20;44.40;;;;;;6271241;28;20944;-56
2022/01/12 01:12:27;;;;;;;50.90;29.13;;;-1.20;44.10;;;;;;6292842;28;20306;-54
2022/01/12 01:15:54;;;;;;;53.10;29.40;;;-1.10;44.30;;;;;;6304331;28;20245;-56
2022/01/12 01:25:38;;;;;;;55.10;27.20;;;-0.80;46.40;;;;;;6294639;28;20225;-56
2022/01/12 01:28:41;;;;;;;50.67;26.60;;;-1.10;46.80;;;;;;6307180;28;20569;-55
2022/01/12 01:31:45;;;;;;;45.87;24.93;;;-0.80;46.40;;;;;;6287600;28;20617;-55
2022/01/12 01:34:49;;;;;;;51.83;25.90;;;-0.90;47.00;;;;;;6296049;28;20252;-55
2022/01/12 01:37:52;;;;;;;52.53;26.77;;;-1.20;46.40;;;;;;6298662;28;20475;-56
2022/01/12 01:40:55;;;;;;;47.77;24.73;;;-1.10;46.40;;;;;;6294090;28;20313;-55
2022/01/12 01:44:35;;;;;;;46.73;23.70;;;-1.00;46.60;;;;;;6304945;28;20236;-56
2022/01/12 01:54:20;;;;;;;45.03;22.33;;;-0.70;47.20;;;;;;6289281;28;20720;-55
2022/01/12 01:57:24;;;;;;;45.13;22.37;;;-1.00;46.60;;;;;;6301507;28;20245;-55
2022/01/12 02:00:29;;;;;;;48.10;23.27;;;-0.90;47.00;;;;;;6295835;28;20256;-55
2022/01/12 02:03:33;;;;;;;41.67;21.70;;;-0.90;47.60;;;;;;6296442;28;20235;-54
2022/01/12 02:06:37;;;;;;;45.17;22.50;;;-0.60;47.60;;;;;;6300722;28;20237;-56
2022/01/12 02:09:39;;;;;;;43.97;23.40;;;-1.00;46.80;;;;;;6297010;28;20301;-55
2022/01/12 02:12:43;;;;;;;52.70;24.67;;;-0.60;47.20;;;;;;6294394;28;20516;-54
2022/01/12 02:15:47;;;;;;;54.07;25.20;;;-0.80;47.60;;;;;;6291435;28;20260;-54
2022/01/12 02:19:09;;;;;;;50.00;24.57;;;-0.70;47.80;;;;;;6288641;28;20331;-55
2022/01/12 02:35:49;;;;;;;51.80;26.17;;;-0.40;48.10;;;;;;6308173;28;20361;-55
2022/01/12 02:42:17;;;;;;;49.40;22.83;;;-0.70;48.00;;;;;;6289463;28;20373;-55
2022/01/12 02:55:22;;;;;;;52.57;24.70;;;-0.80;48.10;;;;;;6289977;28;20267;-55
2022/01/12 02:58:25;;;;;;;59.10;26.60;;;-0.70;48.20;;;;;;6291161;28;20236;-56
2022/01/12 03:05:03;;;;;;;57.63;25.20;;;-0.80;49.80;;;;;;6282943;28;20715;-54
2022/01/12 03:08:13;;;;;;;56.37;25.87;;;-0.60;49.00;;;;;;6296509;28;20237;-55
2022/01/12 03:11:19;;;;;;;56.53;25.23;;;-0.60;49.00;;;;;;6296611;28;20233;-56
2022/01/12 03:14:21;;;;;;;58.80;26.27;;;-0.60;48.70;;;;;;6293700;28;20224;-55
2022/01/12 03:17:24;;;;;;;52.93;26.23;;;-0.30;49.30;;;;;;6293339;28;20345;-56
2022/01/12 03:20:27;;;;;;;53.83;25.83;;;-0.50;48.70;;;;;;6296033;28;20475;-55
2022/01/12 03:23:30;;;;;;;53.60;25.50;;;-0.50;48.30;;;;;;6290976;28;20320;-57
2022/01/12 03:26:35;;;;;;;59.90;26.13;;;-0.60;49.30;;;;;;6289462;28;20239;-56
2022/01/12 03:29:41;;;;;;;63.03;27.23;;;-0.40;49.10;;;;;;6288168;28;20258;-56
2022/01/12 03:32:49;;;;;;;61.43;27.73;;;-0.30;48.60;;;;;;6296386;28;20277;-56
2022/01/12 03:36:12;;;;;;;54.97;24.90;;;-0.50;48.30;;;;;;6297118;28;20312;-55
2022/01/12 03:39:15;;;;;;;58.63;25.67;;;-0.50;48.60;;;;;;6298287;28;20441;-55
2022/01/12 03:42:19;;;;;;;63.87;28.03;;;-0.50;48.20;;;;;;6286761;28;20245;-54
2022/01/12 03:45:22;;;;;;;61.60;26.73;;;-0.60;49.40;;;;;;6301264;28;20336;-55
2022/01/12 03:48:25;;;;;;;60.77;26.97;;;-0.40;48.70;;;;;;6304370;28;20421;-56
2022/01/12 03:51:28;;;;;;;60.40;25.33;;;-0.30;48.60;;;;;;6280796;28;20233;-55
2022/01/12 03:54:30;;;;;;;55.27;25.40;;;-0.50;49.00;;;;;;6297987;28;20367;-55
2022/01/12 03:57:34;;;;;;;60.00;26.17;;;-0.60;49.40;;;;;;6293687;28;20466;-54
2022/01/12 04:00:37;;;;;;;53.60;25.27;;;-0.30;49.20;;;;;;6297536;28;20369;-56
2022/01/12 04:03:44;;;;;;;59.43;26.80;;;-0.20;49.70;;;;;;6299881;28;20319;-55
2022/01/12 04:10:19;;;;;;;55.43;26.50;;;-0.50;48.30;;;;;;6286187;28;20248;-55
2022/01/12 04:13:27;;;;;;;56.53;25.63;;;-0.50;48.80;;;;;;6292932;28;20230;-55
2022/01/12 04:16:30;;;;;;;53.00;23.67;;;-0.50;48.40;;;;;;6301851;28;20363;-55
2022/01/12 04:19:34;;;;;;;50.07;23.47;;;-0.50;48.50;;;;;;6291269;28;20228;-54
2022/01/12 04:26:00;;;;;;;51.53;23.27;;;-0.10;48.70;;;;;;6290055;28;20226;-56
2022/01/12 04:29:06;;;;;;;48.73;24.10;;;-0.30;49.20;;;;;;6294340;28;20383;-58
2022/01/12 04:32:11;;;;;;;49.97;22.40;;;0.00;49.60;;;;;;6280677;28;20777;-55
2022/01/12 04:35:15;;;;;;;50.57;24.00;;;-0.10;48.80;;;;;;6295513;28;20318;-54
2022/01/12 04:38:20;;;;;;;54.57;24.17;;;-0.20;48.40;;;;;;6300502;28;20324;-55
2022/01/12 04:41:24;;;;;;;46.30;22.20;;;-0.40;49.00;;;;;;6307271;28;20732;-54
2022/01/12 04:44:28;;;;;;;43.50;22.57;;;-0.20;49.50;;;;;;6293871;28;20837;-55
2022/01/12 04:47:47;;;;;;;44.53;22.83;;;-0.30;47.90;;;;;;6295436;28;20723;-55
2022/01/12 04:50:50;;;;;;;45.40;22.87;;;0.00;49.30;;;;;;6296106;28;20576;-55
2022/01/12 04:53:54;;;;;;;45.47;22.97;;;-0.10;48.50;;;;;;6300713;28;20237;-55
2022/01/12 04:56:56;;;;;;;51.80;23.63;;;0.00;49.30;;;;;;6291100;28;20246;-55
2022/01/12 05:00:10;;;;;;;51.37;24.97;;;-0.10;48.60;;;;;;6296947;28;20287;-55
2022/01/12 05:06:45;;;;;;;58.23;26.33;;;-0.20;50.10;;;;;;6300614;28;20385;-54
2022/01/12 05:12:42;;;;;;;63.93;26.67;;;-0.40;48.60;;;;;;6282139;28;20480;-54
2022/01/12 05:13:12;;;;;;;57.80;25.63;;;-0.20;49.70;;;;;;6296099;28;20225;-55
2022/01/12 05:16:17;;;;;;;62.10;26.37;;;0.00;49.20;;;;;;6289443;28;20240;-55
2022/01/12 05:19:20;;;;;;;55.43;26.77;;;0.00;49.90;;;;;;6298061;28;20471;-55
2022/01/12 05:22:22;;;;;;;48.23;23.13;;;-0.30;49.50;;;;;;6301566;28;20243;-54
2022/01/12 05:25:25;;;;;;;54.73;24.33;;;-0.20;48.90;;;;;;6295623;28;20370;-54
2022/01/12 05:28:28;;;;;;;54.70;25.00;;;-0.20;49.00;;;;;;6299190;28;20534;-54
2022/01/12 05:31:33;;;;;;;53.80;25.83;;;-0.20;49.80;;;;;;6306124;28;20338;-54
2022/01/12 05:34:37;;;;;;;56.93;24.90;;;-0.30;48.30;;;;;;6300913;28;20554;-55
2022/01/12 05:37:40;;;;;;;58.43;25.90;;;-0.20;49.00;;;;;;6295341;28;20276;-55
2022/01/12 05:40:46;;;;;;;60.00;25.43;;;-0.30;48.80;;;;;;6297613;28;20240;-55
2022/01/12 05:43:49;;;;;;;52.57;25.70;;;-0.20;49.70;;;;;;6302919;28;20336;-55
2022/01/12 05:46:55;;;;;;;51.00;25.23;;;-0.20;49.70;;;;;;6306334;28;20239;-56
2022/01/12 05:49:56;;;;;;;49.83;24.87;;;0.00;49.70;;;;;;6302917;28;20276;-56
2022/01/12 05:52:59;;;;;;;51.53;24.60;;;-0.20;48.60;;;;;;6303870;28;20244;-54
2022/01/12 05:56:02;;;;;;;52.27;24.33;;;-0.10;49.60;;;;;;6309578;28;20284;-56
2022/01/12 05:59:05;;;;;;;52.53;24.30;;;0.00;49.80;;;;;;6291881;28;20670;-55
2022/01/12 06:02:09;;;;;;;51.70;24.33;;;-0.50;49.60;;;;;;6303954;28;20362;-56
2022/01/12 06:05:14;;;;;;;52.80;23.90;;;-0.40;49.10;;;;;;6303676;28;22379;-57
2022/01/12 06:08:17;;;;;;;49.53;23.07;;;-0.40;49.90;;;;;;6297976;28;20543;-56
2022/01/12 06:11:20;;;;;;;54.27;25.17;;;0.00;49.80;;;;;;6298824;28;20673;-56
2022/01/12 06:14:22;;;;;;;54.53;24.50;;;-0.10;48.80;;;;;;6294693;28;20851;-55
2022/01/12 06:17:26;;;;;;;49.60;24.90;;;0.00;49.00;;;;;;6295240;28;20614;-55
2022/01/12 06:20:29;;;;;;;59.63;26.03;;;0.00;48.50;;;;;;6294677;28;20242;-55
2022/01/12 06:23:33;;;;;;;50.97;23.57;;;-0.20;49.20;;;;;;6300065;28;20235;-56
2022/01/12 06:26:37;;;;;;;50.83;24.57;;;0.00;49.00;;;;;;6297745;28;20358;-56
2022/01/12 06:29:43;;;;;;;44.87;23.33;;;-0.20;50.40;;;;;;6269487;28;20574;-53
2022/01/12 06:32:47;;;;;;;51.93;24.30;;;0.20;49.80;;;;;;6301755;28;20248;-55
2022/01/12 06:35:50;;;;;;;49.87;23.60;;;-0.10;48.60;;;;;;6298249;28;20246;-56
2022/01/12 06:38:53;;;;;;;46.03;23.07;;;0.10;49.60;;;;;;6300592;28;20290;-55
2022/01/12 06:41:56;;;;;;;45.73;23.07;;;-0.20;48.80;;;;;;6290217;28;20448;-54
2022/01/12 06:44:59;;;;;;;50.03;23.30;;;0.00;49.20;;;;;;6302625;28;20240;-55
2022/01/12 06:48:03;;;;;;;45.90;21.73;;;-0.20;48.70;;;;;;6289176;28;20316;-55
2022/01/12 06:51:06;;;;;;;49.60;23.87;;;-0.20;48.80;;;;;;6302786;28;20310;-55
2022/01/12 06:54:08;;;;;;;46.53;22.63;;;-0.30;48.90;;;;;;6294621;28;20279;-56
2022/01/12 06:57:11;;;;;;;48.90;24.07;;;0.00;49.70;;;;;;6302068;28;20732;-55
2022/01/12 07:00:15;;;;;;;48.63;23.87;;;-0.10;49.50;;;;;;6294459;28;20230;-55
2022/01/12 07:03:19;;;;;;;50.93;22.77;;;-0.20;49.90;;;;;;6308727;28;20301;-55
2022/01/12 07:06:22;;;;;;;50.70;23.70;;;-0.30;50.20;;;;;;6297999;28;20255;-56
2022/01/12 07:09:24;;;;;;;51.00;23.40;;;-0.10;50.10;;;;;;6302842;28;20377;-55
2022/01/12 07:12:27;;;;;;;49.83;23.57;;;-0.10;50.00;;;;;;6294332;28;20319;-55
2022/01/12 07:15:30;;;;;;;49.13;21.67;;;-0.10;49.80;;;;;;6308077;28;20320;-56
2022/01/12 07:18:34;;;;;;;49.90;23.47;;;0.00;49.90;;;;;;6301373;28;20971;-56
2022/01/12 07:21:37;;;;;;;45.10;22.40;;;0.20;49.10;;;;;;6292404;28;20252;-55
2022/01/12 07:24:40;;;;;;;44.90;22.57;;;0.20;49.40;;;;;;6306194;28;20316;-56
2022/01/12 07:27:43;;;;;;;47.40;23.50;;;0.30;49.30;;;;;;6297193;28;20240;-55
2022/01/12 07:30:45;;;;;;;47.13;22.40;;;0.20;49.90;;;;;;6288881;28;20320;-56
2022/01/12 07:33:50;;;;;;;45.63;23.67;;;0.00;48.70;;;;;;6299307;28;20247;-55
2022/01/12 07:36:53;;;;;;;50.70;24.20;;;0.30;48.90;;;;;;6298836;28;20377;-55
2022/01/12 07:39:56;;;;;;;52.70;24.77;;;0.10;48.60;;;;;;6304469;28;21016;-56
2022/01/12 07:42:58;;;;;;;50.73;25.03;;;0.10;48.90;;;;;;6296664;28;20679;-56
2022/01/12 07:46:01;;;;;;;53.43;23.60;;;0.20;49.00;;;;;;6293602;28;20600;-55
2022/01/12 07:49:06;;;;;;;52.27;24.73;;;0.30;50.00;;;;;;6297241;28;20236;-56
2022/01/12 07:52:08;;;;;;;41.73;22.90;;;0.20;48.70;;;;;;6304086;28;20390;-56
2022/01/12 07:55:11;;;;;;;54.33;24.27;;;0.40;48.60;;;;;;6299167;28;20701;-52
2022/01/12 07:58:14;;;;;;;48.43;23.30;;;0.30;49.10;;;;;;6299972;28;20671;-56
2022/01/12 08:01:17;;;;;;;49.17;24.50;;;0.30;48.30;;;;;;6299401;28;20411;-55
2022/01/12 08:04:21;;;;;;;44.30;22.67;;;0.40;48.20;;;;;;6298824;28;20323;-56
2022/01/12 08:07:25;;;;;;;53.87;24.63;;;0.50;48.50;;;;;;6307043;28;20240;-55
2022/01/12 08:10:28;;;;;;;50.47;25.13;;;0.60;48.50;;;;;;6297974;28;20323;-55
2022/01/12 08:13:30;;;;;;;49.40;24.07;;;0.60;49.10;;;;;;6294480;28;20258;-55
2022/01/12 08:16:33;;;;;;;60.50;25.30;;;0.80;48.60;;;;;;6303253;28;20638;-55
2022/01/12 08:19:39;;;;;;;45.50;22.93;;;0.80;48.00;;;;;;6299345;28;20228;-56
2022/01/12 08:22:42;;;;;;;52.17;24.43;;;0.70;47.50;;;;;;6296061;28;20236;-56
2022/01/12 08:25:45;;;;;;;51.57;25.20;;;0.70;47.00;;;;;;6304889;28;20362;-55
2022/01/12 08:28:48;;;;;;;46.63;23.03;;;0.90;47.20;;;;;;6301577;28;20240;-55
2022/01/12 08:31:51;;;;;;;47.60;24.00;;;0.90;47.00;;;;;;6301042;28;20260;-56
2022/01/12 08:34:55;;;;;;;52.10;24.50;;;1.20;46.80;;;;;;6304965;28;20726;-55
2022/01/12 08:37:58;;;;;;;53.50;25.70;;;1.00;47.50;;;;;;6293793;28;20277;-56
2022/01/12 08:41:01;;;;;;;54.53;26.40;;;0.90;46.30;;;;;;6295926;28;20264;-56
2022/01/12 08:44:05;;;;;;;52.43;25.63;;;1.00;47.40;;;;;;6297913;28;20260;-55
2022/01/12 08:47:08;;;;;;;51.57;25.40;;;1.10;47.10;;;;;;6293252;28;20335;-56
2022/01/12 08:50:13;;;;;;;58.77;26.00;;;1.30;46.20;;;;;;6297738;28;20240;-55
2022/01/12 08:53:16;;;;;;;50.43;24.40;;;1.30;45.70;;;;;;6299983;28;20289;-56
2022/01/12 08:56:19;;;;;;;52.30;25.23;;;1.30;45.50;;;;;;6303666;28;20785;-57
2022/01/12 08:59:22;;;;;;;54.20;24.73;;;1.60;45.00;;;;;;6294246;28;20265;-56
2022/01/12 09:02:25;;;;;;;51.47;25.67;;;1.70;43.90;;;;;;6299784;28;20268;-56
2022/01/12 09:05:30;;;;;;;54.33;25.13;;;1.50;44.40;;;;;;6298248;28;20357;-55
2022/01/12 09:08:34;;;;;;;53.37;25.23;;;1.60;44.50;;;;;;6305191;28;20275;-55
2022/01/12 09:11:36;;;;;;;50.30;25.07;;;2.00;43.50;;;;;;6295068;28;20771;-56
2022/01/12 09:14:39;;;;;;;54.47;24.87;;;1.70;42.20;;;;;;6299442;28;20237;-57
2022/01/12 09:17:44;;;;;;;52.27;24.93;;;1.80;42.50;;;;;;6307847;28;20323;-56
2022/01/12 09:20:49;;;;;;;49.57;25.63;;;1.80;42.00;;;;;;6303761;28;20371;-55
2022/01/12 09:23:52;;;;;;;53.97;26.07;;;2.10;42.40;;;;;;6300445;28;20721;-55
2022/01/12 09:26:54;;;;;;;55.93;26.77;;;2.20;42.90;;;;;;6297794;28;20605;-56
2022/01/12 09:29:57;;;;;;;51.60;25.30;;;2.10;43.20;;;;;;6307639;28;20301;-57
2022/01/12 09:33:00;;;;;;;52.80;24.70;;;2.20;42.50;;;;;;6297624;28;20803;-55
2022/01/12 09:36:04;;;;;;;52.50;24.83;;;2.10;45.10;;;;;;6305607;28;20320;-55
2022/01/12 09:39:08;;;;;;;53.27;25.27;;;2.00;45.30;;;;;;6307070;28;20491;-56
2022/01/12 09:42:11;;;;;;;51.50;25.43;;;2.20;44.90;;;;;;6300845;28;20264;-56
2022/01/12 09:45:15;;;;;;;47.50;24.63;;;2.40;45.40;;;;;;6306662;28;20289;-57
2022/01/12 09:48:21;;;;;;;53.77;25.53;;;2.20;45.70;;;;;;6295832;28;20244;-56
2022/01/12 09:51:25;;;;;;;51.83;24.17;;;2.30;45.80;;;;;;6302683;28;20314;-56
2022/01/12 09:54:28;;;;;;;47.80;23.40;;;2.50;46.30;;;;;;6298967;28;20243;-56
2022/01/12 09:57:31;;;;;;;45.97;23.63;;;2.20;47.20;;;;;;6298002;28;20286;-57
2022/01/12 10:00:34;;;;;;;46.80;24.40;;;2.60;47.30;;;;;;6305598;28;20385;-55
2022/01/12 10:03:37;;;;;;;50.33;23.60;;;2.20;48.10;;;;;;6302345;28;20414;-56
2022/01/12 10:06:45;;;;;;;44.93;23.97;;;2.50;48.40;;;;;;6302202;28;20396;-56
2022/01/12 10:09:49;;;;;;;49.23;24.57;;;2.60;47.30;;;;;;6302199;28;20470;-55
2022/01/12 10:12:56;;;;;;;53.83;23.00;;;2.70;47.90;;;;;;6298600;28;20398;-55
2022/01/12 10:16:09;;;;;;;48.60;24.37;;;2.70;47.40;;;;;;6299022;28;20268;-56
2022/01/12 10:19:12;;;;;;;48.13;22.83;;;2.70;47.70;;;;;;6296353;28;20618;-55
2022/01/12 10:22:15;;;;;;;47.00;23.80;;;2.70;47.40;;;;;;6303602;28;20632;-55
2022/01/12 10:25:20;;;;;;;44.57;23.30;;;2.80;48.10;;;;;;6293643;28;20237;-55
2022/01/12 10:28:24;;;;;;;42.57;23.10;;;3.00;47.80;;;;;;6306607;28;20696;-55
2022/01/12 10:31:27;;;;;;;48.53;24.07;;;2.90;47.60;;;;;;6305783;28;20319;-55
2022/01/12 10:34:36;;;;;;;43.17;22.77;;;3.00;47.70;;;;;;6306491;28;20329;-56
2022/01/12 10:37:40;;;;;;;35.43;21.13;;;3.10;48.10;;;;;;6301434;28;20357;-55
2022/01/12 10:40:46;;;;;;;42.50;21.33;;;3.10;47.20;;;;;;6304163;28;20233;-55
2022/01/12 10:43:49;;;;;;;37.63;21.20;;;3.00;47.70;;;;;;6307158;28;20230;-56
2022/01/12 10:47:10;;;;;;;42.17;21.77;;;3.30;46.40;;;;;;6302361;28;20256;-56
2022/01/12 10:50:12;;;;;;;37.83;20.77;;;3.20;45.70;;;;;;6297256;28;20333;-54
2022/01/12 10:53:28;;;;;;;38.20;21.00;;;3.30;44.30;;;;;;6303995;28;20313;-55
2022/01/12 10:56:32;;;;;;;36.73;19.47;;;3.20;44.80;;;;;;6299385;28;20382;-56
2022/01/12 10:59:37;;;;;;;39.33;21.00;;;3.60;44.30;;;;;;6302766;28;20253;-56
2022/01/12 11:02:40;;;;;;;39.90;20.37;;;3.50;43.50;;;;;;6306951;28;20607;-55
2022/01/12 11:05:44;;;;;;;37.10;19.97;;;3.60;43.30;;;;;;6294552;28;20608;-56
2022/01/12 11:08:50;;;;;;;36.63;20.13;;;3.60;42.90;;;;;;6297847;28;20371;-56
2022/01/12 11:11:53;;;;;;;38.67;19.87;;;3.60;41.80;;;;;;6297591;28;20372;-56
2022/01/12 11:14:56;;;;;;;38.80;20.40;;;3.50;42.40;;;;;;6292549;28;20236;-55
2022/01/12 11:17:58;;;;;;;32.80;20.53;;;3.70;42.70;;;;;;6297962;28;20340;-55
2022/01/12 11:21:07;;;;;;;34.73;21.23;;;3.70;42.20;;;;;;6294095;28;20297;-56
2022/01/12 11:24:15;;;;;;;34.33;20.83;;;3.70;42.10;;;;;;6300916;28;20238;-54
2022/01/12 11:27:21;;;;;;;36.07;21.13;;;3.70;42.10;;;;;;6292086;28;20328;-55
2022/01/12 11:30:24;;;;;;;35.90;21.37;;;3.80;42.60;;;;;;6298781;28;20252;-56
2022/01/12 11:33:40;;;;;;;35.87;20.37;;;3.80;43.50;;;;;;6308599;28;20536;-56
2022/01/12 11:36:43;;;;;;;38.80;21.07;;;3.80;43.10;;;;;;6296901;28;20347;-55
2022/01/12 11:39:48;;;;;;;39.07;21.23;;;3.70;43.70;;;;;;6298965;28;20233;-56
2022/01/12 11:42:51;;;;;;;40.17;22.27;;;3.70;44.10;;;;;;6300154;28;20606;-55
2022/01/12 11:46:05;;;;;;;39.80;23.60;;;3.80;45.00;;;;;;6298990;28;20799;-54
2022/01/12 11:49:09;;;;;;;37.53;23.03;;;3.60;46.10;;;;;;6288830;28;20242;-58
2022/01/12 11:52:17;;;;;;;43.87;24.30;;;3.60;46.80;;;;;;6298727;28;20244;-56
2022/01/12 11:55:21;;;;;;;46.10;22.93;;;3.60;46.60;;;;;;6296340;28;20241;-57
2022/01/12 11:58:24;;;;;;;39.67;23.50;;;3.40;47.20;;;;;;6296579;28;20406;-58
2022/01/12 12:01:38;;;;;;;42.97;23.97;;;3.50;48.30;;;;;;6292624;28;20311;-56
2022/01/12 12:04:53;;;;;;;48.10;23.17;;;3.70;48.30;;;;;;6301779;28;20248;-55
2022/01/12 12:08:01;;;;;;;45.77;23.73;;;3.80;48.60;;;;;;6301060;28;20320;-57
2022/01/12 12:11:10;;;;;;;46.33;23.87;;;3.60;48.40;;;;;;6300389;28;20240;-57
2022/01/12 12:14:14;;;;;;;41.47;23.70;;;3.70;48.70;;;;;;6299656;28;20316;-56
2022/01/12 12:17:18;;;;;;;43.80;24.30;;;3.70;49.30;;;;;;6303106;28;20331;-58
2022/01/12 12:20:22;;;;;;;47.63;25.97;;;3.60;49.30;;;;;;6293026;28;20724;-57
2022/01/12 12:23:31;;;;;;;48.20;24.77;;;3.70;49.80;;;;;;6294683;28;20225;-57
2022/01/12 12:26:44;;;;;;;53.67;25.13;;;3.70;49.30;;;;;;6298199;28;20237;-57
2022/01/12 12:29:48;;;;;;;48.63;24.47;;;3.60;49.70;;;;;;6296756;28;20297;-57
2022/01/12 12:32:52;;;;;;;45.70;24.60;;;3.60;50.10;;;;;;6300697;28;20294;-57
2022/01/12 12:35:55;;;;;;;54.93;26.13;;;3.60;50.60;;;;;;6301131;28;20246;-57
2022/01/12 12:39:09;;;;;;;52.00;26.37;;;3.60;50.90;;;;;;6305477;28;20400;-57
2022/01/12 12:42:19;;;;;;;49.10;27.07;;;3.80;51.70;;;;;;6301541;28;20675;-57
2022/01/12 12:45:22;;;;;;;52.03;28.07;;;3.70;51.60;;;;;;6293131;28;20230;-57
2022/01/12 12:48:27;;;;;;;55.27;27.03;;;3.70;52.50;;;;;;6297188;28;20237;-57
2022/01/12 12:51:29;;;;;;;54.97;25.77;;;3.50;52.20;;;;;;6297930;28;21787;-57
2022/01/12 12:54:32;;;;;;;57.37;25.70;;;3.70;51.80;;;;;;6292863;28;20313;-56
2022/01/12 12:57:49;;;;;;;64.20;27.70;;;3.80;52.60;;;;;;6288621;28;20621;-56
2022/01/12 13:00:52;;;;;;;61.07;29.13;;;3.60;53.20;;;;;;6294784;28;20323;-57
2022/01/12 13:03:57;;;;;;;56.80;28.00;;;3.20;53.30;;;;;;6297374;28;20240;-56
2022/01/12 13:07:12;;;;;;;62.50;27.37;;;3.70;54.30;;;;;;6293715;28;20237;-57
2022/01/12 13:10:17;;;;;;;67.07;29.10;;;3.70;54.60;;;;;;6295645;28;20636;-57
2022/01/12 13:13:21;;;;;;;58.07;27.30;;;3.60;54.10;;;;;;6297277;28;20340;-57
2022/01/12 13:16:26;;;;;;;57.23;27.43;;;3.60;54.10;;;;;;6274984;28;20239;-55
2022/01/12 13:21:06;;;;;;;60.10;26.50;;;3.60;53.90;;;;;;6287324;28;20441;-56
2022/01/12 13:23:02;;;;;;;67.50;28.03;;;3.60;54.00;;;;;;6293812;28;20379;-57
2022/01/12 13:26:05;;;;;;;63.37;28.03;;;3.50;54.40;;;;;;6297570;28;20229;-55
2022/01/12 13:29:12;;;;;;;52.00;26.30;;;3.60;54.50;;;;;;6304047;28;20259;-57
2022/01/12 13:32:20;;;;;;;61.53;27.17;;;3.70;54.50;;;;;;6296833;28;20361;-56
2022/01/12 13:35:27;;;;;;;72.43;28.57;;;3.60;54.40;;;;;;6299168;28;20234;-56
2022/01/12 13:38:32;;;;;;;63.57;29.47;;;3.50;54.70;;;;;;6307187;28;20808;-57
2022/01/12 13:41:36;;;;;;;62.40;28.43;;;3.70;54.70;;;;;;6300719;28;20346;-57
2022/01/12 13:44:40;;;;;;;64.33;28.73;;;3.70;55.30;;;;;;6302735;28;20292;-57
2022/01/12 13:47:49;;;;;;;64.03;28.90;;;3.80;55.40;;;;;;6308706;28;20259;-57
2022/01/12 13:50:54;;;;;;;65.43;28.70;;;3.80;55.30;;;;;;6300887;28;20241;-57
2022/01/12 13:54:05;;;;;;;67.93;28.23;;;3.80;55.50;;;;;;6300633;28;20241;-57
2022/01/12 13:57:09;;;;;;;62.80;26.93;;;3.70;55.20;;;;;;6306517;28;20305;-57
2022/01/12 14:00:20;;;;;;;62.73;28.60;;;3.70;55.70;;;;;;6300800;28;20303;-57
2022/01/12 14:03:24;;;;;;;74.37;30.27;;;3.80;55.80;;;;;;6294278;28;20693;-57
2022/01/12 14:06:28;;;;;;;60.63;28.70;;;3.60;55.40;;;;;;6301113;28;20230;-57
2022/01/12 14:09:36;;;;;;;70.07;29.47;;;3.80;55.60;;;;;;6295184;28;20232;-57
2022/01/12 14:12:48;;;;;;;72.03;30.20;;;3.60;56.00;;;;;;6300797;28;20225;-57
2022/01/12 14:15:52;;;;;;;73.60;31.00;;;3.60;55.60;;;;;;6305702;28;20846;-56
2022/01/12 14:18:58;;;;;;;86.87;34.57;;;3.70;55.70;;;;;;6299468;28;20289;-56
2022/01/12 14:22:01;;;;;;;88.40;33.03;;;3.80;56.00;;;;;;6305241;28;20251;-57
2022/01/12 14:25:05;;;;;;;85.73;33.97;;;3.20;55.80;;;;;;6297772;28;20313;-56
2022/01/12 14:28:09;;;;;;;94.60;33.53;;;3.80;56.30;;;;;;6298964;28;20314;-57
2022/01/12 14:31:14;;;;;;;76.67;33.13;;;3.70;56.20;;;;;;6301511;28;20820;-57
2022/01/12 14:34:16;;;;;;;84.07;33.17;;;3.80;56.40;;;;;;6299608;28;20224;-57
2022/01/12 14:37:19;;;;;;;91.67;33.53;;;3.60;57.00;;;;;;6298800;28;20268;-57
2022/01/12 14:40:23;;;;;;;90.50;32.20;;;3.70;56.30;;;;;;6291486;28;20236;-57
2022/01/12 14:43:29;;;;;;;79.87;31.43;;;3.80;56.90;;;;;;6301781;28;20245;-55
2022/01/12 14:46:33;;;;;;;77.53;29.77;;;3.70;56.40;;;;;;6301392;28;20244;-57
2022/01/12 14:49:36;;;;;;;72.47;30.90;;;3.60;56.40;;;;;;6302598;28;20747;-56
2022/01/12 14:52:39;;;;;;;73.60;30.87;;;3.70;56.60;;;;;;6297624;28;20846;-57
2022/01/12 14:55:42;;;;;;;70.50;29.93;;;3.70;56.40;;;;;;6303115;28;20225;-56
2022/01/12 14:58:45;;;;;;;69.43;29.03;;;3.50;56.40;;;;;;6302088;28;20285;-57
2022/01/12 15:01:49;;;;;;;74.93;29.70;;;3.60;56.50;;;;;;6293958;28;20241;-57
2022/01/12 15:04:52;;;;;;;70.23;30.10;;;3.80;56.70;;;;;;6300833;28;20255;-57
2022/01/12 15:07:56;;;;;;;70.77;28.73;;;3.90;56.80;;;;;;6301889;28;20831;-57
2022/01/12 15:10:59;;;;;;;72.90;30.03;;;3.60;56.60;;;;;;6304014;28;20233;-56
2022/01/12 15:14:20;;;;;;;72.60;31.17;;;3.80;56.70;;;;;;6299681;28;20709;-57
2022/01/12 15:17:25;;;;;;;75.23;32.00;;;3.80;56.70;;;;;;6300017;28;20228;-55
2022/01/12 15:20:28;;;;;;;68.03;30.63;;;3.80;57.20;;;;;;6298084;28;20232;-57
2022/01/12 15:23:31;;;;;;;66.87;29.57;;;3.70;56.60;;;;;;6303788;28;20229;-56
2022/01/12 15:26:34;;;;;;;54.93;27.87;;;3.90;56.80;;;;;;6303729;28;20245;-56
2022/01/12 15:29:36;;;;;;;64.83;27.83;;;3.80;57.10;;;;;;6297259;28;20331;-58
2022/01/12 15:32:40;;;;;;;49.47;25.53;;;3.80;56.80;;;;;;6296450;28;20279;-57
2022/01/12 15:35:43;;;;;;;53.37;24.67;;;3.80;56.70;;;;;;6299348;28;20362;-57
2022/01/12 15:38:46;;;;;;;49.83;25.87;;;4.00;57.00;;;;;;6297729;28;20787;-57
2022/01/12 15:41:49;;;;;;;50.17;25.73;;;3.70;57.00;;;;;;6290927;28;20367;-57
2022/01/12 15:44:52;;;;;;;44.57;23.50;;;4.00;57.10;;;;;;6292593;28;20237;-56
2022/01/12 15:47:56;;;;;;;50.03;23.87;;;3.90;57.00;;;;;;6293866;28;20228;-57
2022/01/12 15:50:58;;;;;;;34.70;20.87;;;4.00;57.00;;;;;;6294173;28;20335;-58
2022/01/12 15:54:01;;;;;;;33.03;20.80;;;4.10;57.10;;;;;;6292200;28;20230;-58
2022/01/12 15:57:06;;;;;;;33.67;19.50;;;4.00;57.00;;;;;;6296681;28;20224;-57
2022/01/12 16:00:10;;;;;;;31.33;17.67;;;3.70;56.40;;;;;;6298160;28;20611;-56
2022/01/12 16:03:14;;;;;;;28.47;18.70;;;3.90;55.90;;;;;;6291550;28;20307;-57
2022/01/12 16:06:17;;;;;;;31.13;19.23;;;4.00;55.70;;;;;;6290675;28;20381;-57
2022/01/12 16:09:20;;;;;;;30.13;18.70;;;3.90;55.20;;;;;;6294082;28;20364;-57
2022/01/12 16:12:23;;;;;;;25.63;17.17;;;3.80;54.30;;;;;;6296029;28;20269;-58
2022/01/12 16:15:46;;;;;;;27.27;17.73;;;3.90;53.00;;;;;;6292638;28;20224;-58
2022/01/12 16:18:50;;;;;;;25.07;17.93;;;3.90;52.70;;;;;;6295379;28;20241;-57
2022/01/12 16:21:52;;;;;;;28.13;18.43;;;3.90;50.90;;;;;;6296203;28;20331;-56
2022/01/12 16:24:55;;;;;;;26.07;18.33;;;3.80;50.70;;;;;;6293505;28;20382;-58
2022/01/12 16:27:58;;;;;;;32.63;20.23;;;4.00;50.80;;;;;;6296992;28;20951;-57
2022/01/12 16:31:02;;;;;;;27.97;20.97;;;3.60;48.80;;;;;;6292806;28;20268;-57
2022/01/12 16:34:09;;;;;;;29.60;21.33;;;3.80;49.40;;;;;;6298806;28;20701;-56
2022/01/12 16:37:13;;;;;;;29.53;21.93;;;3.60;49.00;;;;;;6300738;28;20247;-58
2022/01/12 16:40:17;;;;;;;35.00;22.47;;;3.70;49.40;;;;;;6296529;28;20755;-56
2022/01/12 16:43:21;;;;;;;35.83;24.17;;;3.50;48.00;;;;;;6299028;28;20260;-56
2022/01/12 16:46:24;;;;;;;34.03;23.27;;;3.60;48.20;;;;;;6293490;28;20777;-57